createdAt,value
2023-05-08T00:01:24.683Z,60.05
2023-05-08T00:03:52.377Z,60.18
2023-05-08T00:06:19.457Z,60.41
2023-05-08T00:08:46.123Z,60.20
2023-05-08T00:11:12.887Z,60.36
2023-05-08T00:13:39.563Z,60.56
2023-05-08T00:16:06.479Z,60.42
2023-05-08T00:18:33.086Z,60.54
2023-05-08T00:20:59.696Z,60.43
2023-05-08T00:23:26.322Z,60.66
2023-05-08T00:25:53.016Z,60.54
2023-05-08T00:28:19.714Z,60.62
2023-05-08T00:30:46.429Z,60.90
2023-05-08T00:33:13.043Z,60.80
2023-05-08T00:35:39.771Z,60.77
2023-05-08T00:38:06.480Z,61.08
2023-05-08T00:40:33.191Z,60.96
2023-05-08T00:42:59.811Z,60.96
2023-05-08T00:45:33.320Z,60.57
2023-05-08T00:48:00.307Z,60.98
2023-05-08T00:50:27.122Z,60.98
2023-05-08T00:52:54.454Z,60.78
2023-05-08T00:55:21.298Z,61.22
2023-05-08T00:57:48.181Z,61.12
2023-05-08T01:00:18.548Z,60.82
2023-05-08T01:02:46.585Z,61.36
2023-05-08T01:05:13.251Z,60.70
2023-05-08T01:07:40.062Z,61.29
2023-05-08T01:10:07.263Z,61.08
2023-05-08T01:12:51.827Z,60.01
2023-05-08T01:15:35.219Z,60.92
2023-05-08T01:18:15.626Z,60.04
2023-05-08T01:20:48.829Z,60.62
2023-05-08T01:23:34.443Z,59.95
2023-05-08T01:26:19.635Z,60.17
2023-05-08T01:29:13.267Z,60.06
2023-05-08T01:32:10.540Z,59.85
2023-05-08T01:34:43.275Z,60.56
2023-05-08T01:37:15.134Z,60.82
2023-05-08T01:39:51.157Z,60.46
2023-05-08T01:42:26.267Z,60.83
2023-05-08T01:45:07.716Z,60.40
2023-05-08T01:47:37.940Z,60.70
2023-05-08T01:50:14.129Z,60.70
2023-05-08T01:52:46.720Z,60.76
2023-05-08T01:55:20.751Z,60.87
2023-05-08T01:57:51.962Z,60.95
2023-05-08T02:00:21.226Z,60.90
2023-05-08T02:02:49.722Z,61.18
2023-05-08T02:05:18.282Z,61.24
2023-05-08T02:07:49.168Z,61.14
2023-05-08T02:10:17.431Z,61.57
2023-05-08T02:12:47.734Z,61.63
2023-05-08T02:15:16.466Z,61.60
2023-05-08T02:17:46.227Z,61.55
2023-05-08T02:20:14.733Z,61.63
2023-05-08T02:22:48.486Z,61.17
2023-05-08T02:25:16.102Z,61.62
2023-05-08T02:27:45.768Z,61.59
2023-05-08T02:30:14.677Z,61.43
2023-05-08T02:32:44.508Z,61.72
2023-05-08T02:35:16.813Z,61.51
2023-05-08T02:37:46.742Z,61.70
2023-05-08T02:40:15.083Z,61.98
2023-05-08T02:42:41.968Z,61.19
2023-05-08T02:45:10.180Z,62.13
2023-05-08T02:47:44.075Z,61.20
2023-05-08T02:50:19.544Z,61.59
2023-05-08T02:52:52.564Z,61.51
2023-05-08T02:55:28.296Z,61.43
2023-05-08T02:58:17.072Z,61.49
2023-05-08T03:00:50.995Z,61.49
2023-05-08T03:03:27.446Z,61.61
2023-05-08T03:05:57.765Z,61.91
2023-05-08T03:08:30.541Z,61.50
2023-05-08T03:11:01.286Z,61.86
2023-05-08T03:13:31.604Z,61.96
2023-05-08T03:16:01.551Z,61.66
2023-05-08T03:18:36.885Z,61.29
2023-05-08T03:21:05.564Z,61.68
2023-05-08T03:23:36.146Z,61.21
2023-05-08T03:26:03.373Z,61.71
2023-05-08T03:28:31.284Z,61.87
2023-05-08T03:31:00.794Z,61.74
2023-05-08T03:33:29.509Z,61.56
2023-05-08T03:35:57.955Z,61.64
2023-05-08T03:38:24.962Z,61.41
2023-05-08T03:40:53.443Z,61.42
2023-05-08T03:43:21.548Z,61.29
2023-05-08T03:45:48.706Z,61.34
2023-05-08T03:48:16.884Z,61.40
2023-05-08T03:50:44.381Z,61.24
2023-05-08T03:53:10.966Z,60.89
2023-05-08T03:55:37.816Z,60.17
2023-05-08T03:58:22.424Z,59.74
2023-05-08T04:00:48.922Z,60.56
2023-05-08T04:03:23.965Z,60.17
2023-05-08T04:06:00.723Z,60.94
2023-05-08T04:08:32.482Z,60.15
2023-05-08T04:11:09.932Z,59.80
2023-05-08T04:13:49.002Z,59.06
2023-05-08T04:16:27.886Z,58.96
2023-05-08T04:19:01.591Z,59.64
2023-05-08T04:21:32.518Z,59.17
2023-05-08T04:23:59.648Z,59.02
2023-05-08T04:26:28.315Z,58.88
2023-05-08T04:28:57.562Z,59.34
2023-05-08T04:31:24.877Z,59.46
2023-05-08T04:33:51.909Z,59.33
2023-05-08T04:36:18.649Z,59.16
2023-05-08T04:38:45.843Z,59.49
2023-05-08T04:41:13.148Z,59.31
2023-05-08T04:43:40.423Z,59.50
2023-05-08T04:46:07.983Z,59.16
2023-05-08T04:48:34.673Z,59.37
2023-05-08T04:51:01.721Z,59.33
2023-05-08T04:53:28.642Z,59.78
2023-05-08T04:55:55.218Z,59.79
2023-05-08T04:58:21.968Z,60.10
2023-05-08T05:00:49.089Z,59.26
2023-05-08T05:03:15.866Z,59.47
2023-05-08T05:05:43.098Z,59.20
2023-05-08T05:08:09.983Z,59.16
2023-05-08T05:10:38.683Z,58.82
2023-05-08T05:13:05.423Z,59.03
2023-05-08T05:15:32.832Z,58.92
2023-05-08T05:17:59.639Z,58.80
2023-05-08T05:20:26.337Z,58.61
2023-05-08T05:22:53.501Z,58.48
2023-05-08T05:25:20.161Z,58.44
2023-05-08T05:27:47.013Z,58.40
2023-05-08T05:30:14.061Z,57.72
2023-05-08T05:32:41.166Z,57.76
2023-05-08T05:35:09.924Z,57.77
2023-05-08T05:37:36.840Z,57.96
2023-05-08T05:40:04.145Z,58.05
2023-05-08T05:42:32.726Z,57.72
2023-05-08T05:44:59.469Z,57.66
2023-05-08T05:47:26.291Z,57.63
2023-05-08T05:49:53.066Z,56.80
2023-05-08T05:52:19.912Z,56.73
2023-05-08T05:54:46.714Z,56.88
2023-05-08T05:57:13.499Z,56.53
2023-05-08T05:59:41.265Z,56.78
2023-05-08T06:02:08.542Z,56.82
2023-05-08T06:04:35.515Z,57.18
2023-05-08T06:07:02.320Z,56.49
2023-05-08T06:09:28.895Z,56.62
2023-05-08T06:11:55.679Z,56.98
2023-05-08T06:14:22.333Z,56.24
2023-05-08T06:16:49.084Z,55.75
2023-05-08T06:19:15.873Z,56.31
2023-05-08T06:21:42.766Z,56.67
2023-05-08T06:24:09.436Z,56.76
2023-05-08T06:26:36.003Z,57.11
2023-05-08T06:29:02.656Z,57.07
2023-05-08T06:31:29.350Z,56.99
2023-05-08T06:33:56.163Z,56.85
2023-05-08T06:36:22.759Z,56.16
2023-05-08T06:38:49.442Z,56.59
2023-05-08T06:41:16.061Z,56.76
2023-05-08T06:43:42.640Z,57.16
2023-05-08T06:46:09.759Z,57.16
2023-05-08T06:48:36.426Z,57.27
2023-05-08T06:51:03.177Z,57.19
2023-05-08T06:53:29.866Z,55.73
2023-05-08T06:55:56.472Z,56.46
2023-05-08T06:58:23.187Z,55.82
2023-05-08T07:00:49.940Z,56.35
2023-05-08T07:03:17.043Z,56.10
2023-05-08T07:05:43.579Z,55.91
2023-05-08T07:08:10.306Z,56.31
2023-05-08T07:10:36.969Z,56.02
2023-05-08T07:13:03.592Z,56.34
2023-05-08T07:15:32.223Z,55.00
2023-05-08T07:17:58.914Z,55.46
2023-05-08T07:20:25.862Z,55.63
2023-05-08T07:22:52.543Z,54.83
2023-05-08T07:25:19.253Z,55.12
2023-05-08T07:27:45.996Z,55.45
2023-05-08T07:30:13.023Z,55.82
2023-05-08T07:32:39.849Z,54.64
2023-05-08T07:35:09.651Z,54.35
2023-05-08T07:37:36.993Z,54.62
2023-05-08T07:40:03.803Z,54.32
2023-05-08T07:42:30.581Z,53.73
2023-05-08T07:44:57.303Z,53.93
2023-05-08T07:47:23.921Z,54.23
2023-05-08T07:49:50.860Z,53.91
2023-05-08T07:52:17.448Z,54.04
2023-05-08T07:54:44.179Z,53.96
2023-05-08T07:57:10.852Z,52.54
2023-05-08T07:59:37.404Z,53.10
2023-05-08T08:02:04.083Z,53.25
2023-05-08T08:04:30.881Z,53.27
2023-05-08T08:06:57.539Z,52.44
2023-05-08T08:09:24.294Z,52.41
2023-05-08T08:11:50.826Z,51.74
2023-05-08T08:14:17.515Z,52.03
2023-05-08T08:16:44.139Z,52.08
2023-05-08T08:19:10.759Z,51.91
2023-05-08T08:21:42.434Z,50.37
2023-05-08T08:24:09.530Z,52.51
2023-05-08T08:26:36.154Z,52.35
2023-05-08T08:29:02.812Z,52.66
2023-05-08T08:31:29.764Z,52.60
2023-05-08T08:33:56.425Z,51.57
2023-05-08T08:36:23.257Z,51.52
2023-05-08T08:38:49.970Z,51.97
2023-05-08T08:41:16.658Z,51.76
2023-05-08T08:43:43.291Z,51.64
2023-05-08T08:46:14.353Z,50.20
2023-05-08T08:48:46.190Z,49.59
2023-05-08T08:51:24.610Z,51.24
2023-05-08T08:54:00.939Z,49.20
2023-05-08T08:56:28.264Z,51.00
2023-05-08T08:58:57.366Z,51.44
2023-05-08T09:01:24.891Z,51.25
2023-05-08T09:03:51.592Z,51.56
2023-05-08T09:06:19.760Z,50.16
2023-05-08T09:08:47.324Z,50.88
2023-05-08T09:11:14.181Z,51.84
2023-05-08T09:13:40.807Z,51.33
2023-05-08T09:16:07.695Z,51.36
2023-05-08T09:18:34.389Z,50.80
2023-05-08T09:21:01.562Z,50.47
2023-05-08T09:23:28.128Z,50.46
2023-05-08T09:25:54.849Z,49.20
2023-05-08T09:28:23.553Z,49.74
2023-05-08T09:30:52.045Z,48.54
2023-05-08T09:33:19.694Z,48.88
2023-05-08T09:35:46.690Z,49.21
2023-05-08T09:38:32.005Z,47.17
2023-05-08T09:41:25.006Z,49.56
2023-05-08T09:44:05.584Z,47.62
2023-05-08T09:46:33.337Z,47.61
2023-05-08T09:49:01.801Z,45.26
2023-05-08T09:51:30.439Z,46.19
2023-05-08T09:53:58.849Z,45.06
2023-05-08T09:56:36.005Z,44.85
2023-05-08T09:59:04.509Z,44.60
2023-05-08T10:01:33.787Z,45.31
2023-05-08T10:04:00.921Z,46.16
2023-05-08T10:06:28.710Z,46.92
2023-05-08T10:09:08.234Z,46.23
2023-05-08T10:11:35.047Z,48.17
2023-05-08T10:14:01.683Z,47.40
2023-05-08T10:16:30.297Z,46.57
2023-05-08T10:19:01.383Z,45.92
2023-05-08T10:21:29.521Z,46.66
2023-05-08T10:24:01.200Z,42.91
2023-05-08T10:26:31.573Z,44.74
2023-05-08T10:29:01.548Z,46.18
2023-05-08T10:31:29.088Z,44.84
2023-05-08T10:33:56.542Z,46.20
2023-05-08T10:36:26.233Z,45.02
2023-05-08T10:38:54.020Z,47.42
2023-05-08T10:41:21.176Z,47.38
2023-05-08T10:43:49.453Z,47.08
2023-05-08T10:46:29.232Z,47.46
2023-05-08T10:49:22.165Z,43.94
2023-05-08T10:52:10.527Z,46.96
2023-05-08T10:54:51.925Z,47.34
2023-05-08T10:57:18.575Z,48.93
2023-05-08T10:59:46.804Z,47.10
2023-05-08T11:02:14.138Z,46.64
2023-05-08T11:04:41.000Z,47.16
2023-05-08T11:07:07.933Z,46.97
2023-05-08T11:09:43.463Z,45.43
2023-05-08T11:12:21.981Z,45.14
2023-05-08T11:15:03.112Z,43.69
2023-05-08T11:17:29.772Z,44.83
2023-05-08T11:20:01.905Z,45.43
2023-05-08T11:22:36.028Z,44.96
2023-05-08T11:25:06.076Z,45.01
2023-05-08T11:28:04.245Z,45.37
2023-05-08T11:30:33.426Z,45.64
2023-05-08T11:33:06.036Z,44.22
2023-05-08T11:35:47.948Z,45.64
2023-05-08T11:38:22.004Z,44.96
2023-05-08T11:40:54.761Z,45.19
2023-05-08T11:43:33.093Z,44.55
2023-05-08T11:46:01.901Z,46.05
2023-05-08T11:48:28.662Z,45.93
2023-05-08T11:50:55.941Z,44.67
2023-05-08T11:53:23.057Z,45.10
2023-05-08T11:55:50.550Z,45.99
2023-05-08T11:58:17.228Z,44.65
2023-05-08T12:00:45.458Z,44.61
2023-05-08T12:03:17.371Z,43.49
2023-05-08T12:05:44.875Z,45.36
2023-05-08T12:08:13.087Z,46.26
2023-05-08T12:11:00.214Z,42.61
2023-05-08T12:13:29.294Z,46.30
2023-05-08T12:16:00.876Z,44.16
2023-05-08T12:18:28.744Z,45.00
2023-05-08T12:21:01.419Z,43.21
2023-05-08T12:23:31.492Z,45.57
2023-05-08T12:26:02.008Z,45.00
2023-05-08T12:28:29.049Z,45.96
2023-05-08T12:30:56.444Z,46.15
2023-05-08T12:33:24.121Z,45.97
2023-05-08T12:35:51.041Z,45.42
2023-05-08T12:38:17.667Z,45.98
2023-05-08T12:40:46.344Z,45.94
2023-05-08T12:43:13.403Z,46.14
2023-05-08T12:45:42.143Z,46.30
2023-05-08T12:48:13.715Z,45.83
2023-05-08T12:50:42.557Z,46.29
2023-05-08T12:53:14.165Z,46.54
2023-05-08T12:55:53.603Z,45.20
2023-05-08T12:58:24.308Z,45.42
2023-05-08T13:00:52.524Z,45.07
2023-05-08T13:03:25.138Z,44.55
2023-05-08T13:05:53.023Z,45.64
2023-05-08T13:08:20.140Z,45.99
2023-05-08T13:10:51.985Z,44.60
2023-05-08T13:13:20.614Z,43.26
2023-05-08T13:15:48.786Z,43.94
2023-05-08T13:18:16.851Z,44.19
2023-05-08T13:20:44.265Z,43.75
2023-05-08T13:23:11.146Z,44.90
2023-05-08T13:25:38.751Z,45.09
2023-05-08T13:28:06.175Z,44.59
2023-05-08T13:30:33.493Z,44.62
2023-05-08T13:33:00.522Z,44.64
2023-05-08T13:35:27.442Z,42.42
2023-05-08T13:37:58.105Z,43.93
2023-05-08T13:40:25.180Z,43.44
2023-05-08T13:42:52.159Z,41.47
2023-05-08T13:45:19.362Z,39.85
2023-05-08T13:47:47.137Z,40.97
2023-05-08T13:50:16.208Z,40.72
2023-05-08T13:52:43.224Z,41.96
2023-05-08T13:55:12.078Z,41.56
2023-05-08T13:57:39.337Z,40.44
2023-05-08T14:00:07.411Z,41.50
2023-05-08T14:02:33.989Z,41.40
2023-05-08T14:05:00.690Z,40.83
2023-05-08T14:07:27.360Z,40.03
2023-05-08T14:09:54.322Z,40.95
2023-05-08T14:12:21.283Z,42.74
2023-05-08T14:14:47.872Z,43.47
2023-05-08T14:17:14.576Z,44.17
2023-05-08T14:19:41.156Z,45.03
2023-05-08T14:22:07.720Z,45.13
2023-05-08T14:24:34.411Z,44.89
2023-05-08T14:27:01.164Z,45.44
2023-05-08T14:29:27.766Z,45.52
2023-05-08T14:31:54.445Z,45.66
2023-05-08T14:34:21.212Z,45.63
2023-05-08T14:36:47.863Z,45.23
2023-05-08T14:39:14.478Z,44.97
2023-05-08T14:41:42.100Z,45.18
2023-05-08T14:44:14.664Z,45.03
2023-05-08T14:46:41.285Z,45.59
2023-05-08T14:49:08.038Z,45.69
2023-05-08T14:51:34.721Z,45.50
2023-05-08T14:54:01.549Z,45.41
2023-05-08T14:56:30.322Z,45.06
2023-05-08T14:59:01.387Z,45.06
2023-05-08T15:01:28.102Z,43.58
2023-05-08T15:03:54.815Z,43.51
2023-05-08T15:06:22.922Z,44.04
2023-05-08T15:08:49.678Z,43.46
2023-05-08T15:11:16.327Z,42.93
2023-05-08T15:13:42.924Z,43.04
2023-05-08T15:16:09.787Z,43.72
2023-05-08T15:18:36.651Z,44.05
2023-05-08T15:21:03.366Z,44.07
2023-05-08T15:23:30.009Z,44.32
2023-05-08T15:25:56.703Z,44.17
2023-05-08T15:28:23.376Z,44.52
2023-05-08T15:30:49.949Z,44.47
2023-05-08T15:33:16.500Z,44.59
2023-05-08T15:35:43.077Z,44.87
2023-05-08T15:38:09.655Z,44.79
2023-05-08T15:40:36.308Z,44.50
2023-05-08T15:43:02.914Z,44.70
2023-05-08T15:45:29.639Z,45.33
2023-05-08T15:47:56.413Z,44.96
2023-05-08T15:50:23.070Z,45.01
2023-05-08T15:52:49.963Z,45.46
2023-05-08T15:55:16.637Z,45.72
2023-05-08T15:57:43.340Z,45.68
2023-05-08T16:00:10.593Z,46.10
2023-05-08T16:02:37.299Z,46.37
2023-05-08T16:05:04.028Z,46.43
2023-05-08T16:07:30.595Z,46.82
2023-05-08T16:09:57.195Z,46.80
2023-05-08T16:12:23.786Z,47.04
2023-05-08T16:14:50.390Z,47.06
2023-05-08T16:17:17.132Z,47.04
2023-05-08T16:19:43.772Z,47.04
2023-05-08T16:22:10.341Z,47.41
2023-05-08T16:24:36.893Z,46.85
2023-05-08T16:27:03.803Z,46.91
2023-05-08T16:29:30.335Z,46.42
2023-05-08T16:31:57.029Z,46.70
2023-05-08T16:34:23.711Z,46.39
2023-05-08T16:36:50.332Z,46.26
2023-05-08T16:39:16.991Z,46.43
2023-05-08T16:41:43.807Z,46.62
2023-05-08T16:44:10.405Z,46.73
2023-05-08T16:46:37.050Z,46.68
2023-05-08T16:49:03.704Z,46.60
2023-05-08T16:51:30.235Z,46.23
2023-05-08T16:53:57.990Z,46.35
2023-05-08T16:56:25.035Z,46.84
2023-05-08T16:58:51.577Z,46.61
2023-05-08T17:01:18.282Z,46.53
2023-05-08T17:03:44.958Z,46.34
2023-05-08T17:06:11.824Z,46.50
2023-05-08T17:08:38.491Z,46.11
2023-05-08T17:11:05.085Z,46.47
2023-05-08T17:13:31.767Z,46.90
2023-05-08T17:15:58.650Z,47.18
2023-05-08T17:18:25.546Z,47.38
2023-05-08T17:20:52.323Z,47.44
2023-05-08T17:23:18.954Z,47.82
2023-05-08T17:25:45.592Z,47.66
2023-05-08T17:28:12.229Z,47.51
2023-05-08T17:30:39.744Z,47.73
2023-05-08T17:33:06.434Z,48.00
2023-05-08T17:35:33.201Z,48.16
2023-05-08T17:37:59.779Z,48.45
2023-05-08T17:40:26.373Z,48.55
2023-05-08T17:42:52.990Z,48.76
2023-05-08T17:45:19.606Z,49.11
2023-05-08T17:47:46.559Z,48.43
2023-05-08T17:50:13.337Z,48.72
2023-05-08T17:52:40.145Z,49.12
2023-05-08T17:55:07.657Z,49.23
2023-05-08T17:57:34.451Z,49.53
2023-05-08T18:00:01.144Z,49.77
2023-05-08T18:02:27.751Z,49.97
2023-05-08T18:04:54.429Z,50.13
2023-05-08T18:07:21.021Z,50.53
2023-05-08T18:09:47.755Z,50.62
2023-05-08T18:12:14.335Z,51.02
2023-05-08T18:14:40.980Z,51.00
2023-05-08T18:17:07.536Z,51.11
2023-05-08T18:19:34.220Z,51.11
2023-05-08T18:22:00.949Z,51.31
2023-05-08T18:24:29.151Z,51.41
2023-05-08T18:26:55.638Z,51.35
2023-05-08T18:29:22.189Z,51.79
2023-05-08T18:31:48.852Z,51.58
2023-05-08T18:34:15.428Z,51.74
2023-05-08T18:36:41.996Z,51.85
2023-05-08T18:39:08.567Z,52.02
2023-05-08T18:41:35.226Z,51.94
2023-05-08T18:44:02.124Z,51.94
2023-05-08T18:46:28.712Z,51.95
2023-05-08T18:48:55.358Z,52.25
2023-05-08T18:51:21.985Z,52.41
2023-05-08T18:53:48.587Z,52.35
2023-05-08T18:56:15.173Z,52.66
2023-05-08T18:58:41.781Z,52.23
2023-05-08T19:01:08.388Z,52.64
2023-05-08T19:03:35.062Z,52.59
2023-05-08T19:06:01.998Z,52.77
2023-05-08T19:08:28.752Z,52.91
2023-05-08T19:10:55.308Z,53.02
2023-05-08T19:13:21.959Z,53.02
2023-05-08T19:15:48.761Z,53.31
2023-05-08T19:18:15.333Z,53.38
2023-05-08T19:20:42.037Z,53.30
2023-05-08T19:23:08.973Z,53.51
2023-05-08T19:25:38.414Z,53.28
2023-05-08T19:28:05.220Z,53.53
2023-05-08T19:30:31.841Z,53.14
2023-05-08T19:32:58.408Z,53.40
2023-05-08T19:35:25.174Z,53.13
2023-05-08T19:37:51.759Z,53.34
2023-05-08T19:40:18.480Z,53.48
2023-05-08T19:42:45.060Z,53.29
2023-05-08T19:45:12.907Z,53.53
2023-05-08T19:47:39.547Z,53.82
2023-05-08T19:50:06.774Z,53.70
2023-05-08T19:52:33.404Z,53.79
2023-05-08T19:54:59.966Z,53.93
2023-05-08T19:57:26.866Z,53.77
2023-05-08T19:59:53.429Z,53.82
2023-05-08T20:02:19.984Z,54.02
2023-05-08T20:05:18.194Z,53.75
2023-05-08T20:07:33.143Z,54.01
2023-05-08T20:09:59.752Z,53.89
2023-05-08T20:12:26.600Z,53.85
2023-05-08T20:14:53.264Z,53.84
2023-05-08T20:17:19.937Z,53.99
2023-05-08T20:19:46.515Z,53.86
2023-05-08T20:22:13.103Z,54.11
2023-05-08T20:24:39.697Z,53.92
2023-05-08T20:27:06.318Z,54.21
2023-05-08T20:29:32.956Z,54.07
2023-05-08T20:31:59.683Z,54.45
2023-05-08T20:34:26.447Z,54.30
2023-05-08T20:36:53.032Z,54.37
2023-05-08T20:39:20.084Z,54.38
2023-05-08T20:41:46.641Z,54.24
2023-05-08T20:44:13.272Z,54.15
2023-05-08T20:46:39.954Z,54.15
2023-05-08T20:49:06.577Z,54.41
2023-05-08T20:51:33.140Z,54.25
2023-05-08T20:53:59.936Z,54.38
2023-05-08T20:56:26.532Z,54.37
2023-05-08T20:58:53.201Z,54.22
2023-05-08T21:01:21.062Z,54.18
2023-05-08T21:03:47.901Z,53.99
2023-05-08T21:06:14.589Z,54.43
2023-05-08T21:08:41.187Z,54.47
2023-05-08T21:11:07.823Z,54.66
2023-05-08T21:13:34.528Z,54.56
2023-05-08T21:16:01.147Z,54.65
2023-05-08T21:18:27.802Z,54.60
2023-05-08T21:20:54.432Z,54.87
2023-05-08T21:23:21.062Z,54.99
2023-05-08T21:25:50.690Z,54.77
2023-05-08T21:28:17.562Z,54.89
2023-05-08T21:30:44.867Z,55.00
2023-05-08T21:33:12.238Z,55.08
2023-05-08T21:35:42.031Z,54.99
2023-05-08T21:38:09.478Z,54.94
2023-05-08T21:40:36.139Z,54.92
2023-05-08T21:43:02.767Z,54.89
2023-05-08T21:45:31.087Z,54.96
2023-05-08T21:47:58.763Z,54.83
2023-05-08T21:50:25.974Z,54.74
2023-05-08T21:52:52.675Z,54.94
2023-05-08T21:55:19.989Z,54.93
2023-05-08T21:57:46.535Z,55.14
2023-05-08T22:00:13.774Z,55.11
2023-05-08T22:02:46.337Z,55.08
2023-05-08T22:05:13.320Z,55.03
2023-05-08T22:07:40.088Z,55.00
2023-05-08T22:10:07.420Z,54.84
2023-05-08T22:12:34.009Z,54.87
2023-05-08T22:15:00.774Z,54.75
2023-05-08T22:17:27.577Z,54.71
2023-05-08T22:19:54.137Z,54.64
2023-05-08T22:22:20.874Z,54.53
2023-05-08T22:24:47.472Z,54.28
2023-05-08T22:27:14.039Z,54.37
2023-05-08T22:29:40.773Z,54.48
2023-05-08T22:32:07.530Z,54.61
2023-05-08T22:34:34.290Z,54.38
2023-05-08T22:37:01.003Z,54.49
2023-05-08T22:39:27.787Z,54.82
2023-05-08T22:41:54.722Z,54.76
2023-05-08T22:44:21.661Z,54.91
2023-05-08T22:46:48.300Z,54.72
2023-05-08T22:49:15.071Z,55.01
2023-05-08T22:51:41.766Z,55.16
2023-05-08T22:54:08.357Z,55.43
2023-05-08T22:56:35.050Z,55.30
2023-05-08T22:59:01.763Z,55.32
2023-05-08T23:01:28.336Z,55.57
2023-05-08T23:03:55.069Z,55.38
2023-05-08T23:06:21.695Z,55.43
2023-05-08T23:08:48.369Z,55.60
2023-05-08T23:11:15.462Z,55.61
2023-05-08T23:13:42.144Z,55.74
2023-05-08T23:16:08.707Z,55.67
2023-05-08T23:18:35.346Z,55.84
2023-05-08T23:21:06.591Z,55.83
2023-05-08T23:23:33.662Z,55.87
2023-05-08T23:26:00.712Z,55.90
2023-05-08T23:28:27.589Z,56.02
2023-05-08T23:30:54.320Z,56.02
2023-05-08T23:33:21.092Z,56.29
2023-05-08T23:35:47.690Z,56.42
2023-05-08T23:38:14.432Z,56.47
2023-05-08T23:40:41.015Z,56.69
2023-05-08T23:43:07.746Z,56.62
2023-05-08T23:45:34.300Z,56.63
2023-05-08T23:48:00.891Z,56.78
2023-05-08T23:50:27.633Z,56.87
2023-05-08T23:52:54.284Z,56.80
2023-05-08T23:55:22.374Z,56.97
2023-05-08T23:57:49.058Z,57.20
